Thunder radar more information blitzortung!


Löydät sääaseman tiedot myös:

European Weather Network

Finland Weather Exchange

Weather Underground

AWEKAS



Weather Underground säähistoriasivu

Päivittäin yhteenveto Syyskuu 27, 2017 Yksiköt:  Englantilaiset    Metriset   Molemmat
« Edellinen Päivä
Seuraava Päivä »
Päivittäin Viikoittain Kuukausittain Vuosittain Mukautettu
  Korkea: Matala: Keskiarvo:
Lämpötila: TemperatureC °F 6.1 °F 8.6 °F
Kastepiste: DewpointC °F 5.6 °F 8.2 °F
Kosteus: Humidity % 96 % 96 %
Tuulen nopeus: WindSpeedKMH mph 0.0 mph 0 mph
Tuulenpuuska: WindSpeedGustKMH mph - -
Tuuli:- - SSW
Ilmanpaine: PressurehPa in 1040.5 in -
Sade: 0.0 in    
Historical Graphs
 
 
Taulukkotiedot Syyskuu 27, 2017
Aika Lämpötila Kastepiste Ilmanpaine Tuuli Tuulen nopeus Tuulenpuuska Kosteus Sademäärä (tunneittain)
TemperatureC °F DewpointC °F PressurehPa in Calm     Humidity % HourlyPrecipMM in
00:00 9.3 °F 8.8 °F 1040.5 in Calm     97 % 0.0 in
00:30 9.0 °F 8.5 °F 1040.9 in Calm     97 % 0.0 in
00:45 8.8 °F 8.4 °F 1040.9 in Calm     97 % 0.0 in
01:00 8.6 °F 8.1 °F 1040.9 in Calm     97 % 0.0 in
01:15 8.3 °F 7.9 °F 1040.9 in Calm     97 % 0.0 in
01:30 8.0 °F 7.4 °F 1040.9 in Calm     96 % 0.0 in
01:45 7.7 °F 7.1 °F 1040.9 in Calm     96 % 0.0 in
02:00 7.4 °F 6.9 °F 1040.9 in Calm     97 % 0.0 in
02:15 7.2 °F 6.6 °F 1040.9 in Calm     96 % 0.0 in
02:30 6.9 °F 6.3 °F 1040.9 in Calm     96 % 0.0 in
02:45 6.8 °F 6.3 °F 1040.5 in Calm     97 % 0.0 in
03:00 6.7 °F 6.2 °F 1040.9 in Calm     97 % 0.0 in
03:15 6.4 °F 5.9 °F 1040.9 in Calm     97 % 0.0 in
03:30 6.2 °F 5.8 °F 1040.9 in Calm     97 % 0.0 in
03:45 6.1 °F 5.7 °F 1040.9 in Calm     97 % 0.0 in
04:00 6.1 °F 5.6 °F 1040.9 in Calm     97 % 0.0 in
04:15 6.1 °F 5.7 °F 1040.9 in Calm     97 % 0.0 in
04:30 6.3 °F 5.8 °F 1040.9 in Calm     97 % 0.0 in
04:45 6.7 °F 6.4 °F 1040.9 in Calm     98 % 0.0 in
05:00 6.8 °F 6.5 °F 1040.9 in Calm     98 % 0.0 in
05:15 7.3 °F 7.0 °F 1040.9 in Calm     98 % 0.0 in
05:30 7.4 °F 7.1 °F 1040.9 in Calm   8.0 mph 98 % 0.0 in
05:45 7.3 °F 7.0 °F 1041.2 in SSW 1.6 mph 4.8 mph 98 % 0.0 in
06:00 7.3 °F 7.0 °F 1041.2 in Calm   4.8 mph 98 % 0.0 in
06:15 7.2 °F 6.9 °F 1041.2 in Calm   4.8 mph 98 % 0.0 in
06:30 7.2 °F 6.9 °F 1041.2 in Calm   4.8 mph 98 % 0.0 in
06:45 7.2 °F 6.9 °F 1041.2 in Calm     98 % 0.0 in
07:00 7.2 °F 6.9 °F 1041.2 in Calm     98 % 0.0 in
07:15 7.2 °F 6.9 °F 1041.2 in Calm     98 % 0.0 in
07:30 7.3 °F 7.0 °F 1041.2 in Calm     98 % 0.0 in
07:45 7.4 °F 7.1 °F 1041.2 in Calm     98 % 0.0 in
08:00 7.4 °F 7.1 °F 1041.2 in Calm     98 % 0.0 in
08:15 7.6 °F 7.3 °F 1041.5 in Calm     98 % 0.0 in
08:30 7.7 °F 7.4 °F 1041.5 in Calm     98 % 0.0 in
08:45 7.8 °F 7.5 °F 1041.5 in Calm     98 % 0.0 in
09:00 8.0 °F 7.7 °F 1041.5 in Calm     98 % 0.0 in
09:15 8.2 °F 7.9 °F 1041.5 in Calm     98 % 0.0 in
09:45 8.6 °F 8.3 °F 1041.5 in Calm   3.2 mph 98 % 0.0 in
10:00 8.8 °F 8.5 °F 1041.9 in Calm   4.8 mph 98 % 0.0 in
10:15 9.0 °F 8.7 °F 1041.9 in Calm     98 % 0.0 in
10:30 9.2 °F 8.9 °F 1041.9 in Calm     98 % 0.0 in
10:45 9.3 °F 9.0 °F 1041.9 in Calm     98 % 0.0 in
11:00 9.5 °F 9.2 °F 1042.2 in Calm   1.6 mph 98 % 0.0 in
11:15 9.5 °F 9.2 °F 1042.2 in Calm     98 % 0.0 in
11:30 9.5 °F 9.2 °F 1042.2 in Calm     98 % 0.0 in
11:45 9.6 °F 9.3 °F 1042.2 in Calm     98 % 0.0 in
12:00 9.7 °F 9.4 °F 1042.2 in Calm     98 % 0.0 in
12:15 9.6 °F 9.3 °F 1042.2 in Calm   4.8 mph 98 % 0.0 in
12:30 9.6 °F 9.3 °F 1042.5 in Calm     98 % 0.0 in
12:45 9.6 °F 9.3 °F 1042.2 in Calm     98 % 0.0 in
13:00 9.7 °F 9.4 °F 1042.2 in Calm   3.2 mph 98 % 0.0 in
13:15 9.6 °F 9.3 °F 1042.2 in SSW 1.6 mph 4.8 mph 98 % 0.0 in
13:30 9.7 °F 9.4 °F 1042.2 in Calm     98 % 0.0 in
13:45 9.8 °F 9.5 °F 1042.5 in Calm     98 % 0.0 in
14:00 9.8 °F 9.5 °F 1042.2 in Calm     98 % 0.0 in
14:15 9.9 °F 9.6 °F 1042.5 in Calm     98 % 0.0 in
14:30 9.9 °F 9.6 °F 1042.2 in Calm     98 % 0.0 in
14:45 10.0 °F 9.7 °F 1042.2 in Calm     98 % 0.0 in
15:00 10.0 °F 9.5 °F 1042.2 in Calm   1.6 mph 97 % 0.0 in
15:30 10.0 °F 9.5 °F 1042.2 in Calm   1.6 mph 97 % 0.0 in
15:45 10.1 °F 9.6 °F 1042.2 in Calm     97 % 0.0 in
16:00 10.1 °F 9.6 °F 1042.2 in Calm   3.2 mph 97 % 0.0 in
16:15 10.1 °F 9.6 °F 1042.2 in Calm   3.2 mph 97 % 0.0 in
16:30 10.0 °F 9.5 °F 1042.2 in Calm     97 % 0.0 in
16:45 10.0 °F 9.5 °F 1042.2 in Calm     97 % 0.0 in
17:00 10.0 °F 9.5 °F 1042.2 in Calm   1.6 mph 97 % 0.0 in
17:15 10.1 °F 9.6 °F 1042.2 in Calm     97 % 0.0 in
17:30 10.1 °F 9.7 °F 1042.2 in Calm     97 % 0.0 in
17:45 10.1 °F 9.7 °F 1042.2 in Calm     97 % 0.0 in
18:00 10.1 °F 9.7 °F 1042.2 in Calm     97 % 0.0 in
18:15 10.1 °F 9.6 °F 1041.9 in Calm     97 % 0.0 in
18:30 10.1 °F 9.6 °F 1042.2 in Calm     97 % 0.0 in
18:45 10.1 °F 9.6 °F 1042.2 in Calm   6.4 mph 97 % 0.0 in
19:00 10.0 °F 9.5 °F 1042.2 in Calm     97 % 0.0 in
19:15 9.9 °F 9.4 °F 1042.2 in Calm     97 % 0.0 in
19:30 9.8 °F 9.4 °F 1042.2 in Calm     97 % 0.0 in
19:45 9.8 °F 9.3 °F 1042.2 in Calm     97 % 0.0 in
20:00 9.7 °F 9.3 °F 1042.2 in Calm     97 % 0.0 in
20:15 9.7 °F 9.2 °F 1042.2 in Calm     97 % 0.0 in
20:30 9.6 °F 9.2 °F 1042.2 in Calm     97 % 0.0 in
20:45 9.6 °F 9.1 °F 1042.2 in Calm     97 % 0.0 in
21:00 9.5 °F 9.0 °F 1042.5 in Calm     97 % 0.0 in
21:15 9.4 °F 9.0 °F 1042.5 in Calm   3.2 mph 97 % 0.0 in
21:30 9.3 °F 8.9 °F 1042.5 in Calm   3.2 mph 97 % 0.0 in
21:45 9.3 °F 8.8 °F 1042.5 in Calm   1.6 mph 97 % 0.0 in
22:00 9.2 °F 8.7 °F 1042.5 in Calm   3.2 mph 97 % 0.0 in
22:15 9.1 °F 8.7 °F 1042.5 in Calm   3.2 mph 97 % 0.0 in
22:30 9.1 °F 8.6 °F 1042.5 in Calm     97 % 0.0 in
22:45 9.1 °F 8.6 °F 1042.5 in Calm     97 % 0.0 in
23:00 9.0 °F 8.5 °F 1042.9 in Calm     97 % 0.0 in
23:15 8.9 °F 8.5 °F 1042.9 in Calm     97 % 0.0 in
23:30 8.9 °F 8.4 °F 1042.5 in Calm     97 % 0.0 in
23:45 8.8 °F 8.4 °F 1042.5 in Calm     97 % 0.0 in
Esan sääasema
Terveisin Weather Underground - 2.75 mb

Alkuperäinen skripti  Jim McMurry - jmcmurry@mwt.net Sovitettu myös templatelle  Wim van der Kuil - Leuven-Template.eu

Laitteet joita käytämme:

Sääasema
Davis VP2

Sääasemaohjelma
Cumulus

Sääaseman tietokone
Asus EeePC

Palveluntarjoaja
Suncomet

Davis VP2

Cumulus

Asus EeePC

Suncomet